Time;durP1;ratioP1;P1;durP2;ratioP2;P2;SDS_P1;SDS_P2;PMS_P1;PMS_P2;Temp;Humidity;BMP_temperature;BMP_pressure;BME280_temperature;BME280_humidity;BME280_pressure;Samples;Min_cycle;Max_cycle;Signal;HPM_P1;HPM_P2
2023/09/18 00:01:01;;;;;;;13.18;1.30;;;;;;;17.49;100.00;98066.66;5154829;27;20026;-75
2023/09/18 00:03:32;;;;;;;3.72;1.27;;;;;;;17.49;100.00;98072.06;5156182;27;20041;-75
2023/09/18 00:05:59;;;;;;;0.90;0.90;;;;;;;17.45;100.00;98065.19;5131681;27;20098;-75
2023/09/18 00:08:24;;;;;;;3.13;1.48;;;;;;;17.46;100.00;98066.91;5144012;27;20154;-76
2023/09/18 00:10:52;;;;;;;1.95;0.95;;;;;;;17.45;100.00;98067.88;5155409;27;20035;-75
2023/09/18 00:13:18;;;;;;;3.22;1.42;;;;;;;17.24;100.00;98065.09;5154669;27;20035;-76
2023/09/18 00:15:48;;;;;;;32.58;3.08;;;;;;;17.29;100.00;98070.97;5155624;27;20469;-75
2023/09/18 00:18:37;;;;;;;1.17;1.08;;;;;;;17.34;100.00;98076.88;5131505;27;20023;-75
2023/09/18 00:21:02;;;;;;;1.65;1.20;;;;;;;17.28;100.00;98069.28;5130619;27;20471;-75
2023/09/18 00:23:37;;;;;;;3.65;2.05;;;;;;;17.21;100.00;98074.31;5142425;27;20069;-76
2023/09/18 00:26:05;;;;;;;1.55;1.45;;;;;;;17.20;100.00;98074.41;5138128;27;20022;-76
2023/09/18 00:28:31;;;;;;;1.30;1.15;;;;;;;17.13;100.00;98070.50;5137039;27;20022;-76
2023/09/18 00:30:56;;;;;;;2.92;0.98;;;;;;;17.14;100.00;98066.78;5155414;27;20443;-77
2023/09/18 00:33:24;;;;;;;3.72;1.45;;;;;;;17.15;100.00;98068.53;5137031;27;20014;-76
2023/09/18 00:35:50;;;;;;;1.33;1.23;;;;;;;17.14;100.00;98075.78;5135961;27;20079;-75
2023/09/18 00:38:17;;;;;;;1.35;1.02;;;;;;;17.09;100.00;98069.88;5152526;27;20149;-75
2023/09/18 00:40:44;;;;;;;1.67;1.58;;;;;;;17.14;100.00;98067.66;5137171;27;20132;-74
2023/09/18 00:43:10;;;;;;;0.75;0.75;;;;;;;17.14;100.00;98077.59;5137556;27;20034;-75
2023/09/18 00:45:43;;;;;;;2.50;1.65;;;;;;;17.17;100.00;98082.78;5150393;27;20058;-74
2023/09/18 00:48:09;;;;;;;3.50;1.42;;;;;;;17.09;100.00;98087.94;5136302;27;20045;-74
2023/09/18 00:50:34;;;;;;;1.45;1.23;;;;;;;17.07;100.00;98084.50;5120019;27;20374;-75
2023/09/18 00:53:01;;;;;;;4.03;1.50;;;;;;;17.16;100.00;98087.34;5115888;27;20054;-75
2023/09/18 00:55:27;;;;;;;5.25;1.33;;;;;;;17.19;100.00;98091.63;5134374;27;20034;-76
2023/09/18 00:57:55;;;;;;;4.45;2.35;;;;;;;17.02;100.00;98089.41;5152201;27;20106;-75
2023/09/18 01:00:22;;;;;;;1.42;1.15;;;;;;;17.06;100.00;98085.47;5153751;27;20485;-75
2023/09/18 01:02:47;;;;;;;0.98;0.88;;;;;;;17.02;100.00;98084.84;5153792;27;20028;-75
2023/09/18 01:05:16;;;;;;;0.95;0.82;;;;;;;17.07;100.00;98088.03;5136177;27;20420;-76
2023/09/18 01:07:42;;;;;;;2.30;1.08;;;;;;;17.09;100.00;98090.66;5153402;27;20098;-75
2023/09/18 01:10:15;;;;;;;1.52;1.20;;;;;;;17.11;100.00;98094.94;5153607;27;20441;-76
2023/09/18 01:12:45;;;;;;;2.83;1.23;;;;;;;17.11;100.00;98096.78;5153460;27;20026;-75
2023/09/18 01:15:15;;;;;;;1.58;1.20;;;;;;;17.17;100.00;98090.88;5153674;27;20022;-75
2023/09/18 01:17:40;;;;;;;1.50;1.27;;;;;;;17.17;100.00;98094.44;5153368;27;20540;-76
2023/09/18 01:20:10;;;;;;;1.80;0.85;;;;;;;17.21;100.00;98097.78;5153305;27;20026;-75
2023/09/18 01:22:35;;;;;;;6.32;1.75;;;;;;;17.23;100.00;98085.84;5153399;27;20470;-76
2023/09/18 01:25:01;;;;;;;2.90;1.42;;;;;;;17.21;100.00;98090.53;5153005;27;20114;-76
2023/09/18 01:27:26;;;;;;;2.20;1.40;;;;;;;17.22;100.00;98080.56;5154513;27;20362;-76
2023/09/18 01:29:53;;;;;;;4.32;2.50;;;;;;;17.20;100.00;98087.94;5153303;27;20027;-76
2023/09/18 01:32:19;;;;;;;0.50;0.50;;;;;;;17.23;100.00;98088.56;5153303;27;20034;-75
2023/09/18 01:34:49;;;;;;;2.35;1.20;;;;;;;17.33;100.00;98085.97;5153125;27;20019;-76
2023/09/18 01:37:17;;;;;;;3.95;1.85;;;;;;;17.32;100.00;98087.81;5154542;27;20019;-76
2023/09/18 01:39:43;;;;;;;1.08;0.77;;;;;;;17.26;100.00;98080.19;5153006;27;20018;-76
2023/09/18 01:42:11;;;;;;;0.98;0.93;;;;;;;17.22;100.00;98075.16;5111323;27;20033;-76
2023/09/18 01:44:40;;;;;;;4.40;1.83;;;;;;;17.26;100.00;98076.63;5151813;27;20091;-76
2023/09/18 01:47:12;;;;;;;1.65;1.08;;;;;;;17.21;100.00;98077.00;5152657;27;20025;-75
2023/09/18 01:49:39;;;;;;;1.45;1.35;;;;;;;17.16;100.00;98078.38;5135299;27;20109;-76
2023/09/18 01:52:06;;;;;;;1.38;1.27;;;;;;;17.18;100.00;98079.09;5153965;27;20103;-76
2023/09/18 01:54:32;;;;;;;2.00;1.33;;;;;;;17.18;100.00;98087.22;5152444;27;20421;-75
2023/09/18 01:56:58;;;;;;;3.42;2.00;;;;;;;17.22;100.00;98075.16;5152650;27;20032;-77
2023/09/18 01:59:24;;;;;;;4.47;1.70;;;;;;;17.25;100.00;98081.19;5152263;27;20061;-75
2023/09/18 02:01:50;;;;;;;5.57;2.40;;;;;;;17.15;100.00;98080.19;5152863;27;20105;-76
2023/09/18 02:04:17;;;;;;;2.38;0.95;;;;;;;17.12;100.00;98077.75;5152764;27;20107;-75
2023/09/18 02:06:43;;;;;;;1.23;0.70;;;;;;;16.99;100.00;98079.69;5152298;27;20026;-75
2023/09/18 02:09:11;;;;;;;0.55;0.55;;;;;;;16.96;100.00;98082.63;5152620;27;20022;-77
2023/09/18 02:11:38;;;;;;;1.50;0.90;;;;;;;16.84;100.00;98090.84;5152245;27;20026;-76
2023/09/18 02:14:05;;;;;;;2.10;1.10;;;;;;;16.82;100.00;98082.00;5135253;27;20023;-76
2023/09/18 02:16:33;;;;;;;2.22;1.38;;;;;;;16.74;100.00;98083.47;5153665;27;20027;-77
2023/09/18 02:18:58;;;;;;;1.73;1.35;;;;;;;16.72;100.00;98081.88;5134030;27;20087;-76
2023/09/18 02:21:24;;;;;;;1.95;1.60;;;;;;;16.74;100.00;98086.16;5152210;27;20019;-77
2023/09/18 02:23:53;;;;;;;1.60;1.50;;;;;;;16.82;100.00;98088.28;5134681;27;20075;-76
2023/09/18 02:26:19;;;;;;;3.30;1.33;;;;;;;16.78;100.00;98082.25;5136264;27;20062;-76
2023/09/18 02:28:48;;;;;;;1.80;1.55;;;;;;;16.66;100.00;98085.91;5131358;27;20019;-76
2023/09/18 02:31:13;;;;;;;1.70;1.60;;;;;;;16.70;100.00;98087.38;5146241;27;20029;-76
2023/09/18 02:33:40;;;;;;;1.05;0.95;;;;;;;16.72;100.00;98085.44;5151831;27;20468;-76
2023/09/18 02:36:05;;;;;;;1.55;1.45;;;;;;;16.72;100.00;98080.03;5152930;27;20026;-76
2023/09/18 02:38:32;;;;;;;0.88;0.88;;;;;;;16.71;100.00;98083.72;5153379;27;20110;-76
2023/09/18 02:40:57;;;;;;;2.17;0.85;;;;;;;16.72;100.00;98085.44;5152876;27;20031;-75
2023/09/18 02:43:23;;;;;;;3.03;1.35;;;;;;;16.73;100.00;98078.19;5153131;27;20023;-76
2023/09/18 02:45:50;;;;;;;1.27;1.13;;;;;;;16.75;100.00;98087.91;5151815;27;20015;-76
2023/09/18 02:48:16;;;;;;;2.05;1.58;;;;;;;16.71;100.00;98078.31;5151474;27;20029;-76
2023/09/18 02:50:41;;;;;;;1.67;1.55;;;;;;;16.75;100.00;98087.91;5151762;27;20011;-76
2023/09/18 02:53:08;;;;;;;2.45;1.35;;;;;;;16.79;100.00;98086.69;5151439;27;20059;-77
2023/09/18 02:55:34;;;;;;;1.83;1.13;;;;;;;16.78;100.00;98081.38;5151543;27;20011;-75
2023/09/18 02:58:00;;;;;;;1.33;0.68;;;;;;;16.70;100.00;98083.84;5151415;27;20033;-74
2023/09/18 03:00:25;;;;;;;1.35;1.25;;;;;;;16.69;100.00;98082.97;5151596;27;20026;-76
2023/09/18 03:02:51;;;;;;;1.77;0.73;;;;;;;16.68;100.00;98085.78;5151208;27;20015;-76
2023/09/18 03:05:16;;;;;;;9.82;1.27;;;;;;;16.67;100.00;98086.78;5150933;27;20023;-76
2023/09/18 03:07:42;;;;;;;4.82;1.08;;;;;;;16.69;100.00;98087.50;5152581;27;20454;-76
2023/09/18 03:10:09;;;;;;;1.58;1.20;;;;;;;16.66;100.00;98085.91;5151191;27;20030;-76
2023/09/18 03:12:34;;;;;;;4.15;1.42;;;;;;;16.53;100.00;98082.41;5151317;27;20034;-76
2023/09/18 03:15:00;;;;;;;1.52;1.42;;;;;;;16.36;100.00;98090.97;5152185;27;20019;-76
2023/09/18 03:17:26;;;;;;;3.33;2.25;;;;;;;16.47;100.00;98088.28;5151139;27;20039;-76
2023/09/18 03:19:51;;;;;;;2.40;2.00;;;;;;;16.51;100.00;98088.91;5152254;27;20027;-76
2023/09/18 03:22:17;;;;;;;2.25;1.67;;;;;;;16.54;100.00;98094.97;5150924;27;20033;-76
2023/09/18 03:24:43;;;;;;;3.88;1.50;;;;;;;16.54;100.00;98094.97;5150930;27;20065;-76
2023/09/18 03:27:08;;;;;;;2.08;1.25;;;;;;;16.54;100.00;98092.28;5150836;27;20043;-74
2023/09/18 03:29:34;;;;;;;2.10;1.35;;;;;;;16.58;100.00;98095.59;5152416;27;20102;-76
2023/09/18 03:31:59;;;;;;;3.80;1.38;;;;;;;16.67;100.00;98095.72;5152280;27;20031;-76
2023/09/18 03:34:26;;;;;;;1.88;1.10;;;;;;;16.66;100.00;98094.03;5150558;27;20026;-76
2023/09/18 03:36:53;;;;;;;1.90;1.80;;;;;;;16.69;100.00;98080.28;5150823;27;20019;-76
2023/09/18 03:39:18;;;;;;;1.00;0.85;;;;;;;16.63;100.00;98075.34;5152023;27;20101;-81
2023/09/18 03:41:43;;;;;;;2.58;1.95;;;;;;;16.60;100.00;98078.28;5150895;27;20114;-75
2023/09/18 03:44:10;;;;;;;3.58;1.67;;;;;;;16.43;100.00;98075.13;5133209;27;20488;-75
2023/09/18 03:46:36;;;;;;;3.83;1.95;;;;;;;16.48;100.00;98078.34;5150666;27;20343;-76
2023/09/18 03:49:02;;;;;;;1.33;1.23;;;;;;;16.53;100.00;98065.34;5135135;27;20026;-76
2023/09/18 03:51:29;;;;;;;3.20;1.35;;;;;;;16.47;100.00;98072.06;5150208;27;20382;-76
2023/09/18 03:53:55;;;;;;;2.35;1.38;;;;;;;16.49;100.00;98077.38;5152053;27;20475;-76
2023/09/18 03:56:21;;;;;;;2.55;1.35;;;;;;;16.45;100.00;98073.19;5150448;27;20061;-75
2023/09/18 03:58:49;;;;;;;3.95;1.25;;;;;;;16.36;100.00;98082.84;5150476;27;20109;-75
2023/09/18 04:01:15;;;;;;;10.45;1.10;;;;;;;16.36;100.00;98076.59;5142091;27;20131;-75
2023/09/18 04:03:41;;;;;;;0.55;0.55;;;;;;;16.34;100.00;98071.28;5128796;27;20022;-75
2023/09/18 04:06:07;;;;;;;4.13;1.75;;;;;;;16.33;100.00;98077.69;5151588;27;20049;-75
2023/09/18 04:08:32;;;;;;;1.33;0.95;;;;;;;16.32;100.00;98081.38;5151504;27;20143;-76
2023/09/18 04:10:58;;;;;;;3.85;2.05;;;;;;;16.35;100.00;98086.53;5131707;27;20071;-75
2023/09/18 04:13:24;;;;;;;2.58;0.70;;;;;;;16.31;100.00;98070.66;5128208;27;20034;-76
2023/09/18 04:15:50;;;;;;;1.23;0.70;;;;;;;16.22;100.00;98075.81;5138382;27;20019;-75
2023/09/18 04:18:15;;;;;;;2.22;1.75;;;;;;;16.05;100.00;98070.84;5127153;27;20027;-74
2023/09/18 04:20:41;;;;;;;3.42;1.63;;;;;;;16.06;100.00;98077.06;5128656;27;20031;-74
2023/09/18 04:23:26;;;;;;;1.30;1.20;;;;;;;16.16;100.00;98083.50;5110347;27;20066;-73
2023/09/18 04:25:54;;;;;;;0.82;0.77;;;;;;;16.17;100.00;98079.84;5129896;27;20019;-76
2023/09/18 04:28:22;;;;;;;2.30;1.60;;;;;;;16.18;100.00;98081.56;5127612;27;20126;-74
2023/09/18 04:30:47;;;;;;;3.92;1.30;;;;;;;16.28;100.00;98094.22;5117469;28;20091;-74
2023/09/18 04:33:14;;;;;;;1.33;1.23;;;;;;;16.35;100.00;98100.03;5112415;27;20436;-73
2023/09/18 04:35:40;;;;;;;4.25;1.63;;;;;;;16.28;100.00;98091.53;5151331;27;20022;-72
2023/09/18 04:38:10;;;;;;;1.48;1.35;;;;;;;16.39;100.00;98101.53;5142064;27;20026;-74
2023/09/18 04:40:36;;;;;;;4.50;0.93;;;;;;;16.36;100.00;98093.66;5139185;27;20429;-73
2023/09/18 04:43:04;;;;;;;7.18;1.38;;;;;;;16.45;100.00;98090.25;5139418;27;20027;-73
2023/09/18 04:45:30;;;;;;;1.83;0.88;;;;;;;16.50;100.00;98096.16;5135434;27;20027;-73
2023/09/18 04:47:56;;;;;;;0.73;0.73;;;;;;;16.46;100.00;98086.56;5130091;27;20026;-74
2023/09/18 04:50:21;;;;;;;2.72;1.40;;;;;;;16.49;100.00;98091.72;5153945;27;20437;-74
2023/09/18 04:52:47;;;;;;;3.30;1.55;;;;;;;16.53;100.00;98093.22;5133508;27;20023;-74
2023/09/18 04:55:13;;;;;;;3.75;1.58;;;;;;;16.56;100.00;98087.59;5140850;27;20019;-74
2023/09/18 04:57:39;;;;;;;1.73;1.15;;;;;;;16.63;100.00;98096.09;5146376;27;20135;-74
2023/09/18 05:00:08;;;;;;;1.25;1.00;;;;;;;16.60;100.00;98088.22;5145715;27;20061;-75
2023/09/18 05:02:35;;;;;;;4.05;1.92;;;;;;;16.73;100.00;98094.41;5145693;27;20023;-74
2023/09/18 05:05:01;;;;;;;0.50;0.50;;;;;;;16.69;100.00;98091.09;5145553;27;20481;-74
2023/09/18 05:07:26;;;;;;;4.70;1.17;;;;;;;16.71;100.00;98090.94;5136333;27;20042;-75
2023/09/18 05:09:52;;;;;;;1.48;1.08;;;;;;;16.76;100.00;98084.19;5141854;27;20030;-74
2023/09/18 05:12:18;;;;;;;3.65;1.45;;;;;;;16.77;100.00;98085.06;5141082;27;20027;-74
2023/09/18 05:14:43;;;;;;;1.38;1.10;;;;;;;16.74;100.00;98086.16;5151193;27;20382;-75
2023/09/18 05:17:15;;;;;;;1.65;1.55;;;;;;;16.74;100.00;98088.00;5140864;27;20050;-76
2023/09/18 05:19:41;;;;;;;2.03;1.23;;;;;;;16.81;100.00;98091.97;5145459;27;20485;-74
2023/09/18 05:22:08;;;;;;;2.17;0.95;;;;;;;16.86;100.00;98094.31;5155351;27;20031;-74
2023/09/18 05:24:33;;;;;;;1.35;1.20;;;;;;;16.70;100.00;98083.84;5135441;27;20027;-74
2023/09/18 05:26:59;;;;;;;2.00;1.35;;;;;;;16.66;100.00;98083.22;5137571;27;20371;-75
2023/09/18 05:29:24;;;;;;;0.90;0.52;;;;;;;16.70;100.00;98100.88;5145874;27;20017;-74
2023/09/18 05:31:50;;;;;;;2.55;1.08;;;;;;;16.77;100.00;98090.47;5142930;27;20023;-74
2023/09/18 05:34:15;;;;;;;1.15;1.05;;;;;;;16.93;100.00;98090.13;5140779;27;20527;-75
2023/09/18 05:36:41;;;;;;;2.33;1.52;;;;;;;17.09;100.00;98102.31;5153536;27;20026;-75
2023/09/18 05:39:12;;;;;;;7.63;1.27;;;;;;;17.12;100.00;98087.69;5145152;27;20031;-75
2023/09/18 05:41:39;;;;;;;1.58;0.93;;;;;;;17.15;100.00;98080.19;5119928;27;20036;-74
2023/09/18 05:44:07;;;;;;;1.00;0.82;;;;;;;17.11;100.00;98077.84;5140007;27;20117;-75
2023/09/18 05:46:35;;;;;;;2.47;1.23;;;;;;;17.37;100.00;98084.75;5141536;27;20026;-74
2023/09/18 05:49:00;;;;;;;0.70;0.60;;;;;;;17.21;100.00;98085.13;5128902;27;20031;-74
2023/09/18 05:51:27;;;;;;;2.40;0.98;;;;;;;17.12;100.00;98093.09;5136948;27;20039;-73
2023/09/18 05:53:52;;;;;;;18.10;1.83;;;;;;;17.15;100.00;98092.84;5150731;27;20030;-73
2023/09/18 05:56:18;;;;;;;1.58;1.15;;;;;;;17.26;100.00;98091.00;5139514;27;20431;-74
2023/09/18 05:58:44;;;;;;;1.38;1.27;;;;;;;17.46;100.00;98089.41;5140604;27;20058;-73
2023/09/18 06:01:09;;;;;;;1.92;1.35;;;;;;;17.49;100.00;98091.88;5140705;27;20514;-74
2023/09/18 06:03:35;;;;;;;4.15;1.90;;;;;;;17.51;100.00;98092.59;5132089;27;20031;-71
2023/09/18 06:06:05;;;;;;;1.52;1.35;;;;;;;17.57;100.00;98092.13;5133054;27;20118;-72
2023/09/18 06:08:31;;;;;;;1.80;1.17;;;;;;;17.60;100.00;98097.28;5140452;27;20031;-71
2023/09/18 06:10:57;;;;;;;1.48;1.33;;;;;;;17.66;100.00;98096.78;5134426;27;20180;-70
2023/09/18 06:13:26;;;;;;;0.75;0.75;;;;;;;17.83;100.00;98084.59;5137588;27;20132;-70
2023/09/18 06:15:54;;;;;;;2.22;1.35;;;;;;;17.96;100.00;98087.16;5150322;27;20049;-71
2023/09/18 06:18:22;;;;;;;3.08;1.65;;;;;;;18.35;100.00;98094.63;5152534;27;20026;-72
2023/09/18 06:20:49;;;;;;;1.60;0.93;;;;;;;18.58;100.00;98088.13;5152165;27;20019;-72
2023/09/18 06:23:14;;;;;;;2.97;1.70;;;;;;;18.66;100.00;98082.94;5152177;27;20023;-71
2023/09/18 06:25:40;;;;;;;1.65;1.30;;;;;;;18.75;100.00;98075.84;5152361;27;20038;-70
2023/09/18 06:28:07;;;;;;;0.95;0.90;;;;;;;18.95;100.00;98077.66;5105417;27;20074;-71
2023/09/18 06:30:34;;;;;;;3.83;1.50;;;;;;;19.25;100.00;98066.88;5114210;27;20068;-71
2023/09/18 06:33:03;;;;;;;0.77;0.68;;;;;;;19.60;100.00;98063.72;5114159;27;20107;-72
2023/09/18 06:35:29;;;;;;;0.77;0.77;;;;;;;19.77;100.00;98063.06;5146660;27;20540;-72
2023/09/18 06:37:58;;;;;;;4.53;1.70;;;;;;;19.55;100.00;98060.56;5134313;27;20121;-70
2023/09/18 06:40:25;;;;;;;2.90;1.10;;;;;;;19.55;100.00;98060.56;5152024;27;20481;-70
2023/09/18 06:42:51;;;;;;;4.03;1.55;;;;;;;19.62;100.00;98061.75;5151621;27;20470;-71
2023/09/18 06:45:17;;;;;;;2.15;1.85;;;;;;;19.42;100.00;98060.81;5151889;27;20030;-71
2023/09/18 06:47:42;;;;;;;2.35;1.58;;;;;;;19.76;100.00;98066.78;5151668;27;20023;-72
2023/09/18 06:50:09;;;;;;;8.32;2.30;;;;;;;20.16;100.00;98055.81;5151378;27;20400;-71
2023/09/18 06:52:34;;;;;;;5.53;2.03;;;;;;;20.35;100.00;98052.28;5152976;27;20071;-71
2023/09/18 06:55:00;;;;;;;0.70;0.70;;;;;;;20.05;100.00;98049.69;5151264;27;20027;-72
2023/09/18 06:57:26;;;;;;;1.58;0.38;;;;;;;19.97;100.00;98045.78;5151694;27;20044;-71
2023/09/18 06:59:51;;;;;;;2.55;1.65;;;;;;;19.91;100.00;98051.78;5152719;27;20022;-70
2023/09/18 07:02:17;;;;;;;1.52;0.68;;;;;;;20.05;100.00;98060.53;5152833;27;20022;-70
2023/09/18 07:04:45;;;;;;;2.95;1.67;;;;;;;21.29;100.00;98045.94;5133676;27;20023;-70
2023/09/18 07:07:14;;;;;;;1.98;1.60;;;;;;;22.34;100.00;98042.63;5134249;27;20038;-70
2023/09/18 07:09:41;;;;;;;1.55;1.20;;;;;;;22.72;100.00;98041.44;5152821;27;20031;-71
2023/09/18 07:12:08;;;;;;;3.88;1.10;;;;;;;23.02;100.00;98032.78;5140350;27;20031;-71
2023/09/18 07:14:33;;;;;;;1.75;1.23;;;;;;;23.35;100.00;98035.72;5137898;27;20023;-71
2023/09/18 07:17:00;;;;;;;1.48;0.98;;;;;;;23.91;100.00;98021.44;5133639;27;20057;-71
2023/09/18 07:19:26;;;;;;;14.40;10.07;;;;;;;23.06;100.00;98034.19;5152434;27;20023;-71
2023/09/18 07:21:51;;;;;;;30.60;19.27;;;;;;;23.57;100.00;98036.03;5151239;27;20029;-71
2023/09/18 07:24:17;;;;;;;19.42;11.30;;;;;;;24.32;100.00;98020.53;5150999;27;20030;-71
2023/09/18 07:26:47;;;;;;;19.55;9.40;;;;;;;24.27;100.00;98017.47;5151060;27;20443;-71
2023/09/18 07:29:13;;;;;;;20.15;9.52;;;;;;;24.70;100.00;98017.13;5139851;27;20035;-71
2023/09/18 07:31:40;;;;;;;14.13;8.73;;;;;;;26.45;100.00;98016.00;5131869;27;20027;-71
2023/09/18 07:34:06;;;;;;;16.88;8.90;;;;;;;27.80;100.00;98008.50;5131336;27;20026;-71
2023/09/18 07:36:31;;;;;;;18.17;9.10;;;;;;;29.10;100.00;98002.69;5144122;27;20046;-71
2023/09/18 07:38:57;;;;;;;14.65;8.70;;;;;;;29.94;95.33;98003.44;5150917;27;20030;-72
2023/09/18 07:41:23;;;;;;;18.58;14.30;;;;;;;30.41;88.38;97995.16;5151286;27;20074;-71
2023/09/18 07:43:48;;;;;;;18.48;8.73;;;;;;;30.22;86.99;98001.44;5152390;27;20406;-71
2023/09/18 07:46:14;;;;;;;16.85;8.93;;;;;;;30.57;87.52;98000.28;5150446;27;20423;-72
2023/09/18 07:48:39;;;;;;;15.57;8.57;;;;;;;31.47;77.12;97993.25;5150759;27;20026;-71
2023/09/18 07:51:05;;;;;;;18.55;9.35;;;;;;;31.78;74.97;97993.41;5151843;27;20030;-71
2023/09/18 07:53:32;;;;;;;14.23;8.65;;;;;;;31.72;74.42;97994.25;5150867;27;20485;-71
2023/09/18 07:55:58;;;;;;;12.05;7.93;;;;;;;31.86;73.68;97995.94;5150748;27;20051;-71
2023/09/18 07:58:27;;;;;;;17.80;8.88;;;;;;;31.32;75.65;97996.25;5151689;27;20023;-71
2023/09/18 08:00:59;;;;;;;15.50;8.13;;;;;;;30.61;83.51;97997.91;5133677;27;20121;-72
2023/09/18 08:03:25;;;;;;;12.00;7.68;;;;;;;31.60;77.15;98007.94;5150411;27;20034;-72
2023/09/18 08:05:55;;;;;;;23.52;8.30;;;;;;;32.01;69.89;97982.66;5133163;27;20138;-71
2023/09/18 08:08:21;;;;;;;13.95;7.82;;;;;;;32.04;71.69;97998.03;5133097;27;20046;-71
2023/09/18 08:10:47;;;;;;;15.02;6.88;;;;;;;32.27;69.37;97990.00;5150753;27;20019;-71
2023/09/18 08:13:13;;;;;;;22.10;7.80;;;;;;;32.50;68.42;97981.16;5133274;27;20505;-71
2023/09/18 08:15:39;;;;;;;33.47;10.02;;;;;;;32.69;68.60;97983.81;5143256;27;20022;-72
2023/09/18 08:18:04;;;;;;;11.60;8.18;;;;;;;32.15;69.82;97983.47;5154147;27;20535;-71
2023/09/18 08:20:30;;;;;;;20.88;8.60;;;;;;;32.05;70.63;97983.13;5154522;27;20014;-72
2023/09/18 08:22:56;;;;;;;20.52;8.75;;;;;;;32.02;72.17;97980.75;5154572;27;20038;-71
2023/09/18 08:25:21;;;;;;;19.83;7.85;;;;;;;32.98;64.92;97973.16;5154427;27;20062;-71
2023/09/18 08:27:48;;;;;;;16.58;7.72;;;;;;;32.27;68.14;97983.66;5154566;27;20031;-71
2023/09/18 08:30:14;;;;;;;24.60;9.00;;;;;;;32.66;68.23;97975.97;5156380;27;20080;-71
2023/09/18 08:32:40;;;;;;;16.63;8.20;;;;;;;33.36;62.44;97968.31;5155446;27;20106;-70
2023/09/18 08:35:07;;;;;;;9.32;7.05;;;;;;;33.10;59.96;97954.72;5154448;27;20019;-72
2023/09/18 08:37:33;;;;;;;12.63;7.72;;;;;;;33.66;59.32;97958.19;5136793;27;20470;-72
2023/09/18 08:40:00;;;;;;;15.25;6.95;;;;;;;33.88;57.36;97961.34;5154385;27;20060;-71
2023/09/18 08:42:28;;;;;;;11.63;6.05;;;;;;;33.53;54.78;97955.53;5153762;27;20030;-71
2023/09/18 08:44:54;;;;;;;13.45;6.40;;;;;;;34.61;51.73;97947.34;5154129;27;20097;-70
2023/09/18 08:47:20;;;;;;;12.88;5.53;;;;;;;35.38;49.18;97945.41;5154238;27;20038;-72
2023/09/18 08:49:49;;;;;;;10.52;6.00;;;;;;;34.30;51.64;97942.88;5154117;27;20409;-71
2023/09/18 08:52:15;;;;;;;7.60;6.00;;;;;;;34.05;51.99;97947.69;5154218;27;20455;-71
2023/09/18 08:54:42;;;;;;;8.32;5.70;;;;;;;33.77;53.96;97948.25;5136621;27;20044;-71
2023/09/18 08:57:09;;;;;;;15.00;6.55;;;;;;;34.10;53.32;97933.97;5154156;27;20543;-71
2023/09/18 08:59:36;;;;;;;12.20;6.30;;;;;;;33.63;52.72;97939.22;5133471;27;20437;-71
2023/09/18 09:02:02;;;;;;;9.45;5.40;;;;;;;34.54;51.13;97927.97;5131173;27;20110;-71
2023/09/18 09:04:28;;;;;;;8.50;6.10;;;;;;;35.16;49.97;97934.84;5153464;27;20121;-71
2023/09/18 09:06:57;;;;;;;18.17;5.70;;;;;;;35.34;48.78;97936.69;5136394;27;20030;-72
2023/09/18 09:09:23;;;;;;;9.23;5.60;;;;;;;35.60;47.49;97924.19;5153751;27;20031;-71
2023/09/18 09:11:51;;;;;;;13.32;4.97;;;;;;;35.86;46.00;97912.53;5154842;27;20079;-70
2023/09/18 09:14:19;;;;;;;10.40;5.72;;;;;;;35.86;47.53;97912.53;5136385;27;20023;-71
2023/09/18 09:16:48;;;;;;;8.43;5.20;;;;;;;36.60;45.70;97919.88;5115645;27;20486;-72
2023/09/18 09:19:17;;;;;;;13.13;5.47;;;;;;;36.41;45.27;97921.16;5132135;27;20031;-70
2023/09/18 09:21:43;;;;;;;7.57;4.90;;;;;;;36.75;43.74;97914.56;5124417;27;20033;-72
2023/09/18 09:24:13;;;;;;;9.07;5.35;;;;;;;36.36;45.46;97916.31;5148473;27;20062;-71
2023/09/18 09:26:42;;;;;;;8.82;5.20;;;;;;;36.92;43.42;97906.19;5134922;27;20080;-72
2023/09/18 09:29:20;;;;;;;8.48;5.40;;;;;;;37.48;42.77;97910.75;5133901;27;20026;-71
2023/09/18 09:31:46;;;;;;;11.73;5.38;;;;;;;38.54;40.36;97898.09;5133997;27;20027;-71
2023/09/18 09:34:15;;;;;;;8.32;4.72;;;;;;;39.12;39.49;97897.22;5153316;27;20033;-72
2023/09/18 09:36:54;;;;;;;11.27;5.20;;;;;;;38.72;38.54;97892.13;5152987;27;20050;-71
2023/09/18 09:39:23;;;;;;;10.00;5.40;;;;;;;38.63;40.01;97895.66;5153097;27;20485;-71
2023/09/18 09:41:50;;;;;;;10.52;5.75;;;;;;;35.98;43.52;97888.25;5115761;27;20087;-71
2023/09/18 09:44:16;;;;;;;8.35;5.47;;;;;;;34.54;48.42;97899.31;5148336;27;20110;-71
2023/09/18 09:46:48;;;;;;;8.55;5.70;;;;;;;33.51;50.58;97906.88;5152762;27;20871;-71
2023/09/18 09:49:15;;;;;;;7.93;5.32;;;;;;;32.93;52.92;97903.66;5154375;27;20031;-70
2023/09/18 09:51:41;;;;;;;8.02;5.50;;;;;;;32.16;56.74;97908.50;5135249;27;20110;-71
2023/09/18 09:54:08;;;;;;;8.18;5.70;;;;;;;32.60;58.34;97910.34;5153125;27;20502;-71
2023/09/18 09:56:40;;;;;;;9.60;5.55;;;;;;;33.96;52.30;97902.72;5152874;27;20026;-71
2023/09/18 09:59:09;;;;;;;7.20;5.07;;;;;;;35.20;47.99;97899.91;5152764;27;20031;-71
2023/09/18 10:01:35;;;;;;;9.65;4.78;;;;;;;34.74;47.56;97892.34;5154131;27;20045;-72
2023/09/18 10:04:08;;;;;;;10.25;5.38;;;;;;;33.99;49.63;97896.69;5152550;27;20118;-72
2023/09/18 10:06:35;;;;;;;6.60;5.07;;;;;;;33.41;53.52;97904.66;5136071;27;20031;-71
2023/09/18 10:09:03;;;;;;;7.68;5.05;;;;;;;34.45;49.44;97898.81;5151999;27;20029;-71
2023/09/18 10:11:30;;;;;;;6.38;4.85;;;;;;;35.09;45.11;97886.00;5152644;27;20030;-71
2023/09/18 10:14:00;;;;;;;6.03;5.05;;;;;;;35.98;43.63;97870.69;5152576;27;20023;-72
2023/09/18 10:16:27;;;;;;;6.53;4.97;;;;;;;36.33;42.24;97868.63;5152345;27;20042;-72
2023/09/18 10:19:11;;;;;;;9.07;4.80;;;;;;;36.63;42.31;97869.19;5152505;27;20534;-71
2023/09/18 10:22:05;;;;;;;10.00;5.18;;;;;;;37.51;40.63;97865.53;5153420;27;20030;-70
2023/09/18 10:24:33;;;;;;;19.60;14.50;;;;;;;35.17;44.61;97874.50;5153827;27;20031;-70
2023/09/18 10:27:03;;;;;;;12.68;7.72;;;;;;;33.80;48.02;97875.59;5134931;27;20037;-70
2023/09/18 10:29:31;;;;;;;13.68;7.78;;;;;;;32.31;51.69;97882.38;5152254;27;20042;-71
2023/09/18 10:31:57;;;;;;;9.98;5.78;;;;;;;31.35;58.08;97893.50;5131577;27;20046;-70
2023/09/18 10:34:23;;;;;;;11.98;5.50;;;;;;;30.19;63.12;97885.91;5147070;27;20066;-72
2023/09/18 10:36:50;;;;;;;8.10;5.78;;;;;;;29.67;69.41;97889.34;5151862;27;20027;-72
2023/09/18 10:39:19;;;;;;;10.60;5.80;;;;;;;29.57;74.40;97891.63;5152006;27;20114;-71
2023/09/18 10:41:49;;;;;;;10.35;5.93;;;;;;;29.40;75.97;97896.69;5151584;27;20035;-71
2023/09/18 10:44:17;;;;;;;13.10;5.68;;;;;;;29.54;76.65;97898.44;5134742;27;20027;-73
2023/09/18 10:46:46;;;;;;;11.55;5.95;;;;;;;29.71;72.75;97881.53;5151779;27;20027;-72
2023/09/18 10:49:12;;;;;;;12.40;6.03;;;;;;;31.84;59.65;97864.38;5153219;27;20018;-71
2023/09/18 10:51:42;;;;;;;11.65;5.30;;;;;;;33.11;52.63;97867.66;5153223;27;20263;-71
2023/09/18 10:54:13;;;;;;;14.50;5.13;;;;;;;34.01;50.25;97868.69;5134914;27;20035;-72
2023/09/18 10:56:39;;;;;;;13.20;5.10;;;;;;;35.32;45.51;97853.41;5134486;27;20474;-71
2023/09/18 10:59:07;;;;;;;10.73;5.68;;;;;;;35.77;45.07;97853.59;5134313;27;20022;-71
2023/09/18 11:01:36;;;;;;;9.23;4.70;;;;;;;36.91;41.77;97854.28;5134390;27;20083;-71
2023/09/18 11:04:09;;;;;;;12.88;5.00;;;;;;;38.27;39.15;97849.72;5151395;27;20031;-70
2023/09/18 11:06:57;;;;;;;17.55;10.45;;;;;;;39.65;35.26;97831.75;5134754;27;20031;-72
2023/09/18 11:09:30;;;;;;;5.82;4.60;;;;;;;40.76;33.64;97818.00;5151686;27;20491;-71
2023/09/18 11:11:59;;;;;;;5.90;4.35;;;;;;;39.95;33.68;97815.06;5151534;27;20022;-71
2023/09/18 11:14:46;;;;;;;8.82;5.00;;;;;;;39.84;33.96;97816.13;5152926;27;20461;-72
2023/09/18 11:17:30;;;;;;;10.75;4.70;;;;;;;38.48;35.53;97818.06;5151477;27;20129;-81
2023/09/18 11:20:09;;;;;;;8.93;5.30;;;;;;;39.45;34.54;97812.03;5138865;27;20427;-80
2023/09/18 11:22:39;;;;;;;6.28;4.60;;;;;;;37.90;34.65;97808.50;5145601;27;20458;-82
2023/09/18 11:25:42;;;;;;;6.43;4.72;;;;;;;36.50;37.42;97816.50;5137510;27;20027;-82
2023/09/18 11:28:28;;;;;;;8.05;4.90;;;;;;;36.39;37.77;97803.50;5131720;27;20030;-80